sensor_id;sensor_type;location;lat;lon;timestamp;temperature;humidity
25652;DHT22;13508;50.734;4.232;2022-07-29T00:03:03;20.20;99.90
25652;DHT22;13508;50.734;4.232;2022-07-29T00:06:06;20.20;99.90
25652;DHT22;13508;50.734;4.232;2022-07-29T00:09:10;20.00;99.90
25652;DHT22;13508;50.734;4.232;2022-07-29T00:12:14;19.90;99.90
25652;DHT22;13508;50.734;4.232;2022-07-29T00:15:17;20.00;99.90
25652;DHT22;13508;50.734;4.232;2022-07-29T00:18:21;20.10;99.90
25652;DHT22;13508;50.734;4.232;2022-07-29T00:21:24;20.10;99.90
25652;DHT22;13508;50.734;4.232;2022-07-29T00:24:27;20.10;99.90
25652;DHT22;13508;50.734;4.232;2022-07-29T00:27:31;20.00;99.90
25652;DHT22;13508;50.734;4.232;2022-07-29T00:30:34;19.90;99.90
25652;DHT22;13508;50.734;4.232;2022-07-29T00:33:37;19.60;99.90
25652;DHT22;13508;50.734;4.232;2022-07-29T00:36:41;19.50;99.90
25652;DHT22;13508;50.734;4.232;2022-07-29T00:39:44;19.30;99.90
25652;DHT22;13508;50.734;4.232;2022-07-29T00:42:49;19.30;99.90
25652;DHT22;13508;50.734;4.232;2022-07-29T00:45:53;19.50;99.90
25652;DHT22;13508;50.734;4.232;2022-07-29T00:48:57;19.60;99.90
25652;DHT22;13508;50.734;4.232;2022-07-29T00:52:04;19.60;99.90
25652;DHT22;13508;50.734;4.232;2022-07-29T00:55:11;19.60;99.90
25652;DHT22;13508;50.734;4.232;2022-07-29T00:58:14;19.40;99.90
25652;DHT22;13508;50.734;4.232;2022-07-29T01:01:17;19.10;99.90
25652;DHT22;13508;50.734;4.232;2022-07-29T01:04:21;19.00;99.90
25652;DHT22;13508;50.734;4.232;2022-07-29T01:07:27;19.00;99.90
25652;DHT22;13508;50.734;4.232;2022-07-29T01:10:32;18.90;99.90
25652;DHT22;13508;50.734;4.232;2022-07-29T01:13:36;19.00;99.90
25652;DHT22;13508;50.734;4.232;2022-07-29T01:16:48;19.00;99.90
25652;DHT22;13508;50.734;4.232;2022-07-29T01:20:12;18.90;99.90
25652;DHT22;13508;50.734;4.232;2022-07-29T01:30:09;18.90;99.90
25652;DHT22;13508;50.734;4.232;2022-07-29T01:33:15;18.60;99.90
25652;DHT22;13508;50.734;4.232;2022-07-29T01:36:48;18.60;99.90
25652;DHT22;13508;50.734;4.232;2022-07-29T01:39:57;18.20;99.90
25652;DHT22;13508;50.734;4.232;2022-07-29T01:43:11;18.00;99.90
25652;DHT22;13508;50.734;4.232;2022-07-29T01:46:21;17.90;99.90
25652;DHT22;13508;50.734;4.232;2022-07-29T01:49:28;17.90;99.90
25652;DHT22;13508;50.734;4.232;2022-07-29T01:52:43;17.90;99.90
25652;DHT22;13508;50.734;4.232;2022-07-29T01:55:48;18.10;99.90
25652;DHT22;13508;50.734;4.232;2022-07-29T01:58:53;18.10;99.90
25652;DHT22;13508;50.734;4.232;2022-07-29T02:01:58;18.10;99.90
25652;DHT22;13508;50.734;4.232;2022-07-29T02:05:03;18.30;99.90
25652;DHT22;13508;50.734;4.232;2022-07-29T02:08:09;18.20;99.90
25652;DHT22;13508;50.734;4.232;2022-07-29T02:11:13;18.00;99.90
25652;DHT22;13508;50.734;4.232;2022-07-29T02:14:19;18.00;99.90
25652;DHT22;13508;50.734;4.232;2022-07-29T02:17:26;18.00;99.90
25652;DHT22;13508;50.734;4.232;2022-07-29T02:20:30;18.10;99.90
25652;DHT22;13508;50.734;4.232;2022-07-29T02:23:35;18.10;99.90
25652;DHT22;13508;50.734;4.232;2022-07-29T02:26:42;17.90;99.90
25652;DHT22;13508;50.734;4.232;2022-07-29T02:29:47;17.80;99.90
25652;DHT22;13508;50.734;4.232;2022-07-29T02:32:53;17.70;99.90
25652;DHT22;13508;50.734;4.232;2022-07-29T02:35:58;17.70;99.90
25652;DHT22;13508;50.734;4.232;2022-07-29T02:39:03;17.60;99.90
25652;DHT22;13508;50.734;4.232;2022-07-29T02:42:10;17.40;99.90
25652;DHT22;13508;50.734;4.232;2022-07-29T02:45:14;17.30;99.90
25652;DHT22;13508;50.734;4.232;2022-07-29T02:48:20;17.30;99.90
25652;DHT22;13508;50.734;4.232;2022-07-29T02:51:28;17.20;99.90
25652;DHT22;13508;50.734;4.232;2022-07-29T02:54:58;17.00;99.90
25652;DHT22;13508;50.734;4.232;2022-07-29T03:01:15;16.90;99.90
25652;DHT22;13508;50.734;4.232;2022-07-29T03:04:20;17.10;99.90
25652;DHT22;13508;50.734;4.232;2022-07-29T03:07:25;17.20;99.90
25652;DHT22;13508;50.734;4.232;2022-07-29T03:10:28;17.20;99.90
25652;DHT22;13508;50.734;4.232;2022-07-29T03:13:32;17.20;99.90
25652;DHT22;13508;50.734;4.232;2022-07-29T03:16:36;17.30;99.90
25652;DHT22;13508;50.734;4.232;2022-07-29T03:19:40;17.30;99.90
25652;DHT22;13508;50.734;4.232;2022-07-29T03:22:45;17.30;99.90
25652;DHT22;13508;50.734;4.232;2022-07-29T03:25:51;17.00;99.90
25652;DHT22;13508;50.734;4.232;2022-07-29T03:28:55;16.70;99.90
25652;DHT22;13508;50.734;4.232;2022-07-29T03:31:58;16.40;99.90
25652;DHT22;13508;50.734;4.232;2022-07-29T03:35:03;16.20;99.90
25652;DHT22;13508;50.734;4.232;2022-07-29T03:38:06;15.80;99.90
25652;DHT22;13508;50.734;4.232;2022-07-29T03:41:11;15.70;99.90
25652;DHT22;13508;50.734;4.232;2022-07-29T03:44:18;15.70;99.90
25652;DHT22;13508;50.734;4.232;2022-07-29T03:47:23;15.60;99.90
25652;DHT22;13508;50.734;4.232;2022-07-29T03:50:29;15.60;99.90
25652;DHT22;13508;50.734;4.232;2022-07-29T03:53:33;15.60;99.90
25652;DHT22;13508;50.734;4.232;2022-07-29T03:56:42;15.70;99.90
25652;DHT22;13508;50.734;4.232;2022-07-29T03:59:46;16.00;99.90
25652;DHT22;13508;50.734;4.232;2022-07-29T04:02:50;16.10;99.90
25652;DHT22;13508;50.734;4.232;2022-07-29T04:06:01;16.30;99.90
25652;DHT22;13508;50.734;4.232;2022-07-29T04:09:05;16.20;99.90
25652;DHT22;13508;50.734;4.232;2022-07-29T04:12:09;15.90;99.90
25652;DHT22;13508;50.734;4.232;2022-07-29T04:15:12;15.60;99.90
25652;DHT22;13508;50.734;4.232;2022-07-29T04:18:15;15.00;99.90
25652;DHT22;13508;50.734;4.232;2022-07-29T04:21:19;15.00;99.90
25652;DHT22;13508;50.734;4.232;2022-07-29T04:24:22;14.90;99.90
25652;DHT22;13508;50.734;4.232;2022-07-29T04:27:25;14.80;99.90
25652;DHT22;13508;50.734;4.232;2022-07-29T04:30:30;14.70;99.90
25652;DHT22;13508;50.734;4.232;2022-07-29T04:33:33;14.70;99.90
25652;DHT22;13508;50.734;4.232;2022-07-29T04:36:42;14.70;99.90
25652;DHT22;13508;50.734;4.232;2022-07-29T04:39:45;14.80;99.90
25652;DHT22;13508;50.734;4.232;2022-07-29T04:42:48;14.70;99.90
25652;DHT22;13508;50.734;4.232;2022-07-29T04:45:51;14.70;99.90
25652;DHT22;13508;50.734;4.232;2022-07-29T04:48:54;15.20;99.90
25652;DHT22;13508;50.734;4.232;2022-07-29T04:51:57;15.50;99.90
25652;DHT22;13508;50.734;4.232;2022-07-29T04:55:02;15.80;99.90
25652;DHT22;13508;50.734;4.232;2022-07-29T04:58:06;15.90;99.90
25652;DHT22;13508;50.734;4.232;2022-07-29T05:01:10;16.10;99.90
25652;DHT22;13508;50.734;4.232;2022-07-29T05:04:13;16.00;99.90
25652;DHT22;13508;50.734;4.232;2022-07-29T05:07:16;16.20;99.90
25652;DHT22;13508;50.734;4.232;2022-07-29T05:10:20;16.40;99.90
25652;DHT22;13508;50.734;4.232;2022-07-29T05:13:22;16.80;99.90
25652;DHT22;13508;50.734;4.232;2022-07-29T05:16:26;17.90;99.90
25652;DHT22;13508;50.734;4.232;2022-07-29T05:19:30;19.20;99.90
25652;DHT22;13508;50.734;4.232;2022-07-29T05:22:34;20.60;99.90
25652;DHT22;13508;50.734;4.232;2022-07-29T05:25:37;21.10;99.90
25652;DHT22;13508;50.734;4.232;2022-07-29T05:28:40;21.90;99.90
25652;DHT22;13508;50.734;4.232;2022-07-29T05:31:43;22.20;99.90
25652;DHT22;13508;50.734;4.232;2022-07-29T05:34:46;22.80;99.90
25652;DHT22;13508;50.734;4.232;2022-07-29T05:37:49;23.80;98.90
25652;DHT22;13508;50.734;4.232;2022-07-29T05:40:56;25.00;95.80
25652;DHT22;13508;50.734;4.232;2022-07-29T05:44:00;25.40;94.00
25652;DHT22;13508;50.734;4.232;2022-07-29T05:47:04;25.70;92.70
25652;DHT22;13508;50.734;4.232;2022-07-29T05:50:08;25.40;92.70
25652;DHT22;13508;50.734;4.232;2022-07-29T05:53:11;25.80;92.00
25652;DHT22;13508;50.734;4.232;2022-07-29T05:56:15;26.10;90.60
25652;DHT22;13508;50.734;4.232;2022-07-29T05:59:18;25.00;91.90
25652;DHT22;13508;50.734;4.232;2022-07-29T06:02:21;24.20;93.80
25652;DHT22;13508;50.734;4.232;2022-07-29T06:05:24;25.20;92.80
25652;DHT22;13508;50.734;4.232;2022-07-29T06:08:27;27.10;90.00
25652;DHT22;13508;50.734;4.232;2022-07-29T06:11:30;28.70;83.40
25652;DHT22;13508;50.734;4.232;2022-07-29T06:14:33;29.60;78.20
25652;DHT22;13508;50.734;4.232;2022-07-29T06:17:37;29.90;75.60
25652;DHT22;13508;50.734;4.232;2022-07-29T06:20:41;30.80;72.60
25652;DHT22;13508;50.734;4.232;2022-07-29T06:23:44;31.00;69.90
25652;DHT22;13508;50.734;4.232;2022-07-29T06:26:47;32.20;67.10
25652;DHT22;13508;50.734;4.232;2022-07-29T06:29:51;32.50;64.40
25652;DHT22;13508;50.734;4.232;2022-07-29T06:32:54;32.50;63.80
25652;DHT22;13508;50.734;4.232;2022-07-29T06:35:57;32.20;64.00
25652;DHT22;13508;50.734;4.232;2022-07-29T06:39:03;33.00;61.30
25652;DHT22;13508;50.734;4.232;2022-07-29T06:42:06;32.80;59.80
25652;DHT22;13508;50.734;4.232;2022-07-29T06:45:11;32.00;61.30
25652;DHT22;13508;50.734;4.232;2022-07-29T06:48:14;29.40;66.40
25652;DHT22;13508;50.734;4.232;2022-07-29T06:51:18;28.70;68.80
25652;DHT22;13508;50.734;4.232;2022-07-29T06:54:21;27.70;71.60
25652;DHT22;13508;50.734;4.232;2022-07-29T06:57:42;26.20;77.40
25652;DHT22;13508;50.734;4.232;2022-07-29T07:00:46;23.90;87.60
25652;DHT22;13508;50.734;4.232;2022-07-29T07:03:50;23.30;91.30
25652;DHT22;13508;50.734;4.232;2022-07-29T07:06:56;23.20;92.60
25652;DHT22;13508;50.734;4.232;2022-07-29T07:10:28;23.10;93.50
25652;DHT22;13508;50.734;4.232;2022-07-29T07:13:32;23.90;92.90
25652;DHT22;13508;50.734;4.232;2022-07-29T07:16:37;25.00;91.10
25652;DHT22;13508;50.734;4.232;2022-07-29T07:19:40;25.60;90.30
25652;DHT22;13508;50.734;4.232;2022-07-29T07:22:44;28.30;81.50
25652;DHT22;13508;50.734;4.232;2022-07-29T07:25:50;28.50;78.70
25652;DHT22;13508;50.734;4.232;2022-07-29T07:28:56;29.00;76.00
25652;DHT22;13508;50.734;4.232;2022-07-29T07:32:00;28.00;77.90
25652;DHT22;13508;50.734;4.232;2022-07-29T07:35:05;27.80;80.00
25652;DHT22;13508;50.734;4.232;2022-07-29T07:38:09;29.70;75.00
25652;DHT22;13508;50.734;4.232;2022-07-29T07:41:12;28.20;77.90
25652;DHT22;13508;50.734;4.232;2022-07-29T07:44:16;29.90;73.40
25652;DHT22;13508;50.734;4.232;2022-07-29T07:47:24;32.10;68.10
25652;DHT22;13508;50.734;4.232;2022-07-29T07:50:27;31.60;67.20
25652;DHT22;13508;50.734;4.232;2022-07-29T07:53:31;31.10;67.90
25652;DHT22;13508;50.734;4.232;2022-07-29T07:56:34;30.40;70.00
25652;DHT22;13508;50.734;4.232;2022-07-29T07:59:38;29.60;72.10
25652;DHT22;13508;50.734;4.232;2022-07-29T08:02:41;31.00;69.30
25652;DHT22;13508;50.734;4.232;2022-07-29T08:05:48;32.20;66.40
25652;DHT22;13508;50.734;4.232;2022-07-29T08:08:54;32.70;64.30
25652;DHT22;13508;50.734;4.232;2022-07-29T08:11:58;31.90;66.60
25652;DHT22;13508;50.734;4.232;2022-07-29T08:15:05;33.20;63.80
25652;DHT22;13508;50.734;4.232;2022-07-29T08:18:14;33.20;62.90
25652;DHT22;13508;50.734;4.232;2022-07-29T08:21:17;30.90;67.60
25652;DHT22;13508;50.734;4.232;2022-07-29T08:24:21;30.60;68.60
25652;DHT22;13508;50.734;4.232;2022-07-29T08:27:44;29.90;70.80
25652;DHT22;13508;50.734;4.232;2022-07-29T08:30:47;28.90;73.60
25652;DHT22;13508;50.734;4.232;2022-07-29T08:33:50;28.60;74.20
25652;DHT22;13508;50.734;4.232;2022-07-29T08:36:55;28.80;74.10
25652;DHT22;13508;50.734;4.232;2022-07-29T08:39:59;29.40;73.20
25652;DHT22;13508;50.734;4.232;2022-07-29T08:43:07;29.00;73.10
25652;DHT22;13508;50.734;4.232;2022-07-29T08:46:11;29.40;73.70
25652;DHT22;13508;50.734;4.232;2022-07-29T08:49:15;32.70;66.50
25652;DHT22;13508;50.734;4.232;2022-07-29T08:52:19;34.90;60.60
25652;DHT22;13508;50.734;4.232;2022-07-29T08:55:23;33.80;61.20
25652;DHT22;13508;50.734;4.232;2022-07-29T08:58:31;33.30;61.50
25652;DHT22;13508;50.734;4.232;2022-07-29T09:01:37;31.30;65.00
25652;DHT22;13508;50.734;4.232;2022-07-29T09:04:40;33.20;62.80
25652;DHT22;13508;50.734;4.232;2022-07-29T09:07:44;34.00;59.10
25652;DHT22;13508;50.734;4.232;2022-07-29T09:10:50;34.80;57.50
25652;DHT22;13508;50.734;4.232;2022-07-29T09:13:54;33.40;60.50
25652;DHT22;13508;50.734;4.232;2022-07-29T09:16:58;32.40;62.00
25652;DHT22;13508;50.734;4.232;2022-07-29T09:20:19;30.50;66.00
25652;DHT22;13508;50.734;4.232;2022-07-29T09:23:23;30.10;67.10
25652;DHT22;13508;50.734;4.232;2022-07-29T09:26:30;30.30;66.60
25652;DHT22;13508;50.734;4.232;2022-07-29T09:29:34;32.80;62.20
25652;DHT22;13508;50.734;4.232;2022-07-29T09:32:58;34.60;58.00
25652;DHT22;13508;50.734;4.232;2022-07-29T09:36:08;35.40;55.20
25652;DHT22;13508;50.734;4.232;2022-07-29T09:39:12;36.80;53.20
25652;DHT22;13508;50.734;4.232;2022-07-29T09:42:28;35.50;53.90
25652;DHT22;13508;50.734;4.232;2022-07-29T09:45:33;34.20;56.10
25652;DHT22;13508;50.734;4.232;2022-07-29T09:48:37;33.50;57.50
25652;DHT22;13508;50.734;4.232;2022-07-29T09:51:40;34.00;57.40
25652;DHT22;13508;50.734;4.232;2022-07-29T09:54:44;32.30;58.70
25652;DHT22;13508;50.734;4.232;2022-07-29T09:57:48;34.40;55.30
25652;DHT22;13508;50.734;4.232;2022-07-29T10:00:52;35.20;54.20
25652;DHT22;13508;50.734;4.232;2022-07-29T10:03:56;35.40;53.20
25652;DHT22;13508;50.734;4.232;2022-07-29T10:07:02;35.30;52.90
25652;DHT22;13508;50.734;4.232;2022-07-29T10:10:06;35.70;52.50
25652;DHT22;13508;50.734;4.232;2022-07-29T10:13:11;34.00;54.90
25652;DHT22;13508;50.734;4.232;2022-07-29T10:16:15;33.10;55.70
25652;DHT22;13508;50.734;4.232;2022-07-29T10:19:19;34.00;53.70
25652;DHT22;13508;50.734;4.232;2022-07-29T10:22:23;34.70;55.40
25652;DHT22;13508;50.734;4.232;2022-07-29T10:25:26;35.90;52.30
25652;DHT22;13508;50.734;4.232;2022-07-29T10:28:33;35.00;51.70
25652;DHT22;13508;50.734;4.232;2022-07-29T10:31:52;34.30;53.60
25652;DHT22;13508;50.734;4.232;2022-07-29T10:42:23;31.00;59.40
25652;DHT22;13508;50.734;4.232;2022-07-29T10:45:27;31.50;58.20
25652;DHT22;13508;50.734;4.232;2022-07-29T10:48:32;33.20;54.80
25652;DHT22;13508;50.734;4.232;2022-07-29T10:52:08;35.70;51.50
25652;DHT22;13508;50.734;4.232;2022-07-29T10:55:31;35.50;51.30
25652;DHT22;13508;50.734;4.232;2022-07-29T10:58:36;34.30;52.10
25652;DHT22;13508;50.734;4.232;2022-07-29T11:01:39;34.10;53.20
25652;DHT22;13508;50.734;4.232;2022-07-29T11:21:01;31.90;55.20
25652;DHT22;13508;50.734;4.232;2022-07-29T11:24:15;32.80;51.70
25652;DHT22;13508;50.734;4.232;2022-07-29T11:27:19;33.50;51.90
25652;DHT22;13508;50.734;4.232;2022-07-29T11:30:47;32.30;53.70
25652;DHT22;13508;50.734;4.232;2022-07-29T11:33:51;32.30;54.30
25652;DHT22;13508;50.734;4.232;2022-07-29T11:40:14;33.80;50.30
25652;DHT22;13508;50.734;4.232;2022-07-29T11:46:50;32.00;52.80
25652;DHT22;13508;50.734;4.232;2022-07-29T11:49:56;30.80;55.10
25652;DHT22;13508;50.734;4.232;2022-07-29T11:53:01;31.00;53.90
25652;DHT22;13508;50.734;4.232;2022-07-29T11:56:09;33.50;50.20
25652;DHT22;13508;50.734;4.232;2022-07-29T11:59:14;36.60;46.00
25652;DHT22;13508;50.734;4.232;2022-07-29T12:02:18;38.20;44.50
25652;DHT22;13508;50.734;4.232;2022-07-29T12:05:29;38.80;44.30
25652;DHT22;13508;50.734;4.232;2022-07-29T12:08:40;38.30;44.50
25652;DHT22;13508;50.734;4.232;2022-07-29T12:11:44;39.30;43.70
25652;DHT22;13508;50.734;4.232;2022-07-29T12:14:48;37.70;45.30
25652;DHT22;13508;50.734;4.232;2022-07-29T12:17:51;38.80;43.60
25652;DHT22;13508;50.734;4.232;2022-07-29T12:20:59;38.40;43.00
25652;DHT22;13508;50.734;4.232;2022-07-29T12:24:05;33.60;48.50
25652;DHT22;13508;50.734;4.232;2022-07-29T12:27:09;31.30;53.00
25652;DHT22;13508;50.734;4.232;2022-07-29T12:30:14;31.20;53.50
25652;DHT22;13508;50.734;4.232;2022-07-29T12:33:22;30.40;53.70
25652;DHT22;13508;50.734;4.232;2022-07-29T12:36:26;30.10;54.50
25652;DHT22;13508;50.734;4.232;2022-07-29T12:39:29;30.30;54.40
25652;DHT22;13508;50.734;4.232;2022-07-29T12:42:33;29.50;55.20
25652;DHT22;13508;50.734;4.232;2022-07-29T12:45:42;28.90;57.60
25652;DHT22;13508;50.734;4.232;2022-07-29T12:48:50;28.70;58.50
25652;DHT22;13508;50.734;4.232;2022-07-29T12:51:57;28.40;58.00
25652;DHT22;13508;50.734;4.232;2022-07-29T12:55:00;28.10;59.60
25652;DHT22;13508;50.734;4.232;2022-07-29T12:58:04;28.10;61.70
25652;DHT22;13508;50.734;4.232;2022-07-29T13:01:13;27.30;63.10
25652;DHT22;13508;50.734;4.232;2022-07-29T13:04:29;27.50;63.50
25652;DHT22;13508;50.734;4.232;2022-07-29T13:07:37;28.30;61.50
25652;DHT22;13508;50.734;4.232;2022-07-29T13:10:40;29.50;58.30
25652;DHT22;13508;50.734;4.232;2022-07-29T13:13:50;30.70;56.40
25652;DHT22;13508;50.734;4.232;2022-07-29T13:17:05;31.00;55.10
25652;DHT22;13508;50.734;4.232;2022-07-29T13:20:10;31.10;56.70
25652;DHT22;13508;50.734;4.232;2022-07-29T13:23:15;30.30;57.00
25652;DHT22;13508;50.734;4.232;2022-07-29T13:26:18;28.70;59.80
25652;DHT22;13508;50.734;4.232;2022-07-29T13:29:22;29.20;59.30
25652;DHT22;13508;50.734;4.232;2022-07-29T13:32:27;28.70;59.60
25652;DHT22;13508;50.734;4.232;2022-07-29T13:35:31;28.30;59.80
25652;DHT22;13508;50.734;4.232;2022-07-29T13:38:34;28.10;60.20
25652;DHT22;13508;50.734;4.232;2022-07-29T13:41:37;27.90;60.40
25652;DHT22;13508;50.734;4.232;2022-07-29T13:44:41;28.20;60.70
25652;DHT22;13508;50.734;4.232;2022-07-29T13:47:44;28.10;60.30
25652;DHT22;13508;50.734;4.232;2022-07-29T13:50:47;28.30;59.80
25652;DHT22;13508;50.734;4.232;2022-07-29T13:53:51;28.10;59.80
25652;DHT22;13508;50.734;4.232;2022-07-29T13:56:54;27.60;59.20
25652;DHT22;13508;50.734;4.232;2022-07-29T13:59:57;27.50;60.90
25652;DHT22;13508;50.734;4.232;2022-07-29T14:03:01;27.90;59.30
25652;DHT22;13508;50.734;4.232;2022-07-29T14:06:04;28.60;58.70
25652;DHT22;13508;50.734;4.232;2022-07-29T14:09:08;28.50;58.10
25652;DHT22;13508;50.734;4.232;2022-07-29T14:12:11;28.20;57.80
25652;DHT22;13508;50.734;4.232;2022-07-29T14:15:15;27.70;57.90
25652;DHT22;13508;50.734;4.232;2022-07-29T14:18:18;27.70;57.00
25652;DHT22;13508;50.734;4.232;2022-07-29T14:21:22;27.90;58.10
25652;DHT22;13508;50.734;4.232;2022-07-29T14:24:26;27.90;56.80
25652;DHT22;13508;50.734;4.232;2022-07-29T14:27:29;28.30;57.90
25652;DHT22;13508;50.734;4.232;2022-07-29T14:30:33;28.50;57.80
25652;DHT22;13508;50.734;4.232;2022-07-29T14:33:36;28.70;58.20
25652;DHT22;13508;50.734;4.232;2022-07-29T14:36:40;28.00;59.50
25652;DHT22;13508;50.734;4.232;2022-07-29T14:39:44;28.10;59.20
25652;DHT22;13508;50.734;4.232;2022-07-29T14:42:47;28.70;58.30
25652;DHT22;13508;50.734;4.232;2022-07-29T14:45:51;29.00;57.80
25652;DHT22;13508;50.734;4.232;2022-07-29T14:48:54;29.00;58.30
25652;DHT22;13508;50.734;4.232;2022-07-29T14:51:58;28.90;58.30
25652;DHT22;13508;50.734;4.232;2022-07-29T14:55:02;28.70;59.00
25652;DHT22;13508;50.734;4.232;2022-07-29T14:58:05;29.60;56.90
25652;DHT22;13508;50.734;4.232;2022-07-29T15:01:08;30.10;55.90
25652;DHT22;13508;50.734;4.232;2022-07-29T15:04:12;28.60;57.60
25652;DHT22;13508;50.734;4.232;2022-07-29T15:07:16;27.80;59.90
25652;DHT22;13508;50.734;4.232;2022-07-29T15:10:19;27.60;60.10
25652;DHT22;13508;50.734;4.232;2022-07-29T15:13:23;27.80;59.00
25652;DHT22;13508;50.734;4.232;2022-07-29T15:16:26;27.90;59.30
25652;DHT22;13508;50.734;4.232;2022-07-29T15:19:30;28.20;58.10
25652;DHT22;13508;50.734;4.232;2022-07-29T15:22:33;28.00;57.70
25652;DHT22;13508;50.734;4.232;2022-07-29T15:25:36;28.60;57.00
25652;DHT22;13508;50.734;4.232;2022-07-29T15:28:40;28.20;57.70
25652;DHT22;13508;50.734;4.232;2022-07-29T15:31:44;28.20;58.20
25652;DHT22;13508;50.734;4.232;2022-07-29T15:34:47;28.70;56.80
25652;DHT22;13508;50.734;4.232;2022-07-29T15:37:50;28.30;57.00
25652;DHT22;13508;50.734;4.232;2022-07-29T15:40:54;28.30;57.60
25652;DHT22;13508;50.734;4.232;2022-07-29T15:43:57;28.20;57.90
25652;DHT22;13508;50.734;4.232;2022-07-29T15:47:01;28.40;59.20
25652;DHT22;13508;50.734;4.232;2022-07-29T15:50:10;28.60;57.80
25652;DHT22;13508;50.734;4.232;2022-07-29T15:53:18;28.00;58.90
25652;DHT22;13508;50.734;4.232;2022-07-29T15:56:21;27.60;58.80
25652;DHT22;13508;50.734;4.232;2022-07-29T15:59:24;27.50;59.40
25652;DHT22;13508;50.734;4.232;2022-07-29T16:02:28;27.50;59.20
25652;DHT22;13508;50.734;4.232;2022-07-29T16:05:32;27.70;59.40
25652;DHT22;13508;50.734;4.232;2022-07-29T16:08:35;27.90;58.80
25652;DHT22;13508;50.734;4.232;2022-07-29T16:11:40;27.80;59.30
25652;DHT22;13508;50.734;4.232;2022-07-29T16:14:44;27.70;59.90
25652;DHT22;13508;50.734;4.232;2022-07-29T16:17:47;27.70;59.60
25652;DHT22;13508;50.734;4.232;2022-07-29T16:20:52;27.90;58.90
25652;DHT22;13508;50.734;4.232;2022-07-29T16:23:56;28.00;59.40
25652;DHT22;13508;50.734;4.232;2022-07-29T16:26:59;28.20;58.80
25652;DHT22;13508;50.734;4.232;2022-07-29T16:30:04;28.00;60.30
25652;DHT22;13508;50.734;4.232;2022-07-29T16:33:08;27.50;60.80
25652;DHT22;13508;50.734;4.232;2022-07-29T16:36:11;27.50;61.20
25652;DHT22;13508;50.734;4.232;2022-07-29T16:39:15;27.80;60.40
25652;DHT22;13508;50.734;4.232;2022-07-29T16:42:19;27.60;60.50
25652;DHT22;13508;50.734;4.232;2022-07-29T16:45:22;27.60;60.70
25652;DHT22;13508;50.734;4.232;2022-07-29T16:48:25;27.30;61.70
25652;DHT22;13508;50.734;4.232;2022-07-29T16:51:29;27.00;62.90
25652;DHT22;13508;50.734;4.232;2022-07-29T16:54:33;27.10;62.40
25652;DHT22;13508;50.734;4.232;2022-07-29T16:57:36;26.80;62.80
25652;DHT22;13508;50.734;4.232;2022-07-29T17:00:39;26.60;63.70
25652;DHT22;13508;50.734;4.232;2022-07-29T17:03:43;26.70;64.00
25652;DHT22;13508;50.734;4.232;2022-07-29T17:07:05;26.60;63.80
25652;DHT22;13508;50.734;4.232;2022-07-29T17:10:09;26.60;65.00
25652;DHT22;13508;50.734;4.232;2022-07-29T17:13:12;26.50;65.60
25652;DHT22;13508;50.734;4.232;2022-07-29T17:16:16;26.30;66.20
25652;DHT22;13508;50.734;4.232;2022-07-29T17:19:21;26.10;66.30
25652;DHT22;13508;50.734;4.232;2022-07-29T17:22:25;26.30;67.10
25652;DHT22;13508;50.734;4.232;2022-07-29T17:25:30;26.20;67.40
25652;DHT22;13508;50.734;4.232;2022-07-29T17:28:33;26.10;68.10
25652;DHT22;13508;50.734;4.232;2022-07-29T17:31:37;26.10;69.00
25652;DHT22;13508;50.734;4.232;2022-07-29T17:34:41;26.00;68.70
25652;DHT22;13508;50.734;4.232;2022-07-29T17:37:44;26.10;69.40
25652;DHT22;13508;50.734;4.232;2022-07-29T17:40:47;26.00;70.00
25652;DHT22;13508;50.734;4.232;2022-07-29T17:43:51;26.00;70.00
25652;DHT22;13508;50.734;4.232;2022-07-29T17:46:55;25.90;70.80
25652;DHT22;13508;50.734;4.232;2022-07-29T17:49:58;25.70;71.50
25652;DHT22;13508;50.734;4.232;2022-07-29T17:53:02;25.60;72.20
25652;DHT22;13508;50.734;4.232;2022-07-29T17:56:05;25.70;73.00
25652;DHT22;13508;50.734;4.232;2022-07-29T17:59:09;25.50;73.70
25652;DHT22;13508;50.734;4.232;2022-07-29T18:02:12;25.40;75.40
25652;DHT22;13508;50.734;4.232;2022-07-29T18:05:16;25.50;76.20
25652;DHT22;13508;50.734;4.232;2022-07-29T18:08:19;25.20;77.10
25652;DHT22;13508;50.734;4.232;2022-07-29T18:11:23;24.80;78.20
25652;DHT22;13508;50.734;4.232;2022-07-29T18:14:26;24.80;79.60
25652;DHT22;13508;50.734;4.232;2022-07-29T18:17:30;24.80;79.80
25652;DHT22;13508;50.734;4.232;2022-07-29T18:20:33;24.90;79.80
25652;DHT22;13508;50.734;4.232;2022-07-29T18:23:37;24.80;79.90
25652;DHT22;13508;50.734;4.232;2022-07-29T18:26:41;24.60;80.30
25652;DHT22;13508;50.734;4.232;2022-07-29T18:29:44;24.60;80.40
25652;DHT22;13508;50.734;4.232;2022-07-29T18:32:48;24.50;80.10
25652;DHT22;13508;50.734;4.232;2022-07-29T18:35:52;24.40;80.40
25652;DHT22;13508;50.734;4.232;2022-07-29T18:38:56;24.40;81.10
25652;DHT22;13508;50.734;4.232;2022-07-29T18:41:59;24.40;80.70
25652;DHT22;13508;50.734;4.232;2022-07-29T18:45:03;24.30;80.90
25652;DHT22;13508;50.734;4.232;2022-07-29T18:48:07;24.20;81.90
25652;DHT22;13508;50.734;4.232;2022-07-29T18:51:10;24.20;82.00
25652;DHT22;13508;50.734;4.232;2022-07-29T18:54:14;23.90;82.60
25652;DHT22;13508;50.734;4.232;2022-07-29T18:57:19;23.80;83.00
25652;DHT22;13508;50.734;4.232;2022-07-29T19:00:24;23.70;83.50
25652;DHT22;13508;50.734;4.232;2022-07-29T19:03:28;23.60;84.50
25652;DHT22;13508;50.734;4.232;2022-07-29T19:06:31;23.60;84.80
25652;DHT22;13508;50.734;4.232;2022-07-29T19:09:35;23.40;85.60
25652;DHT22;13508;50.734;4.232;2022-07-29T19:12:39;23.40;86.20
25652;DHT22;13508;50.734;4.232;2022-07-29T19:15:42;23.30;86.90
25652;DHT22;13508;50.734;4.232;2022-07-29T19:18:46;23.30;87.60
25652;DHT22;13508;50.734;4.232;2022-07-29T19:21:49;23.20;88.50
25652;DHT22;13508;50.734;4.232;2022-07-29T19:24:53;23.20;88.90
25652;DHT22;13508;50.734;4.232;2022-07-29T19:27:56;23.10;89.00
25652;DHT22;13508;50.734;4.232;2022-07-29T19:31:00;23.10;89.60
25652;DHT22;13508;50.734;4.232;2022-07-29T19:34:03;22.90;90.20
25652;DHT22;13508;50.734;4.232;2022-07-29T19:37:06;22.90;90.30
25652;DHT22;13508;50.734;4.232;2022-07-29T19:40:10;22.80;90.40
25652;DHT22;13508;50.734;4.232;2022-07-29T19:43:14;22.50;91.10
25652;DHT22;13508;50.734;4.232;2022-07-29T19:46:19;22.50;91.40
25652;DHT22;13508;50.734;4.232;2022-07-29T19:49:23;22.50;91.60
25652;DHT22;13508;50.734;4.232;2022-07-29T19:52:26;22.40;91.70
25652;DHT22;13508;50.734;4.232;2022-07-29T19:55:30;22.20;92.10
25652;DHT22;13508;50.734;4.232;2022-07-29T19:58:33;22.10;92.50
25652;DHT22;13508;50.734;4.232;2022-07-29T20:01:37;22.10;92.90
25652;DHT22;13508;50.734;4.232;2022-07-29T20:04:40;22.00;93.50
25652;DHT22;13508;50.734;4.232;2022-07-29T20:07:43;21.90;93.50
25652;DHT22;13508;50.734;4.232;2022-07-29T20:10:47;21.80;94.10